createdAt,value
2023-02-16T00:00:53.059Z,11.07
2023-02-16T00:03:24.842Z,8.93
2023-02-16T00:05:56.610Z,13.70
2023-02-16T00:08:28.311Z,14.53
2023-02-16T00:11:18.617Z,15.60
2023-02-16T00:13:53.120Z,12.10
2023-02-16T00:16:25.272Z,14.60
2023-02-16T00:18:56.981Z,13.00
2023-02-16T00:21:28.731Z,9.53
2023-02-16T00:24:00.482Z,10.60
2023-02-16T00:26:34.922Z,19.10
2023-02-16T00:29:06.631Z,9.40
2023-02-16T00:31:38.416Z,15.43
2023-02-16T00:34:30.523Z,13.43
2023-02-16T00:37:05.107Z,10.20
2023-02-16T00:39:38.290Z,14.23
2023-02-16T00:42:20.745Z,11.97
2023-02-16T00:44:55.611Z,10.93
2023-02-16T00:47:37.247Z,13.43
2023-02-16T00:50:22.332Z,9.30
2023-02-16T00:52:54.118Z,14.23
2023-02-16T00:55:35.180Z,18.27
2023-02-16T00:58:24.244Z,9.03
2023-02-16T01:01:00.915Z,25.13
2023-02-16T01:03:32.748Z,12.33
2023-02-16T01:06:23.361Z,13.97
2023-02-16T01:09:21.274Z,15.23
2023-02-16T01:11:52.974Z,11.53
2023-02-16T01:14:25.100Z,15.37
2023-02-16T01:16:57.828Z,12.10
2023-02-16T01:19:29.574Z,13.83
2023-02-16T01:22:01.257Z,15.00
2023-02-16T01:24:33.182Z,25.00
2023-02-16T01:27:04.879Z,15.03
2023-02-16T01:29:36.592Z,13.77
2023-02-16T01:32:12.536Z,17.33
2023-02-16T01:34:44.401Z,12.80
2023-02-16T01:37:16.557Z,17.17
2023-02-16T01:39:49.179Z,13.30
2023-02-16T01:42:38.638Z,9.73
2023-02-16T01:45:33.920Z,15.70
2023-02-16T01:48:13.847Z,11.37
2023-02-16T01:51:12.840Z,12.27
2023-02-16T01:53:50.383Z,15.80
2023-02-16T01:56:59.844Z,9.77
2023-02-16T01:59:31.532Z,18.27
2023-02-16T02:02:11.826Z,9.13
2023-02-16T02:05:23.720Z,9.67
2023-02-16T02:08:26.557Z,17.43
2023-02-16T02:11:30.199Z,11.97
2023-02-16T02:14:07.178Z,13.47
2023-02-16T02:16:39.707Z,16.80
2023-02-16T02:19:11.412Z,22.60
2023-02-16T02:22:22.426Z,13.80
2023-02-16T02:25:51.637Z,13.13
2023-02-16T02:28:41.976Z,8.73
2023-02-16T02:31:13.873Z,12.47
2023-02-16T02:34:08.346Z,18.10
2023-02-16T02:36:56.391Z,14.90
2023-02-16T02:40:03.241Z,13.73
2023-02-16T02:42:56.953Z,16.50
2023-02-16T02:45:36.351Z,12.90
2023-02-16T02:48:08.152Z,18.37
2023-02-16T02:50:39.884Z,20.23
2023-02-16T02:53:16.410Z,17.60
2023-02-16T02:56:08.753Z,21.23
2023-02-16T02:59:00.488Z,17.80
2023-02-16T03:01:35.303Z,13.20
2023-02-16T03:04:10.155Z,13.87
2023-02-16T03:06:48.120Z,9.17
2023-02-16T03:09:20.832Z,12.90
2023-02-16T03:12:13.063Z,14.77
2023-02-16T03:14:49.949Z,16.07
2023-02-16T03:17:46.386Z,17.33
2023-02-16T03:20:37.434Z,13.50
2023-02-16T03:23:27.906Z,14.47
2023-02-16T03:26:18.640Z,16.50
2023-02-16T03:29:09.749Z,14.57
2023-02-16T03:31:42.107Z,23.90
2023-02-16T03:34:15.435Z,14.17
2023-02-16T03:36:50.198Z,14.27
2023-02-16T03:39:21.939Z,15.73
2023-02-16T03:41:55.461Z,19.87
2023-02-16T03:44:27.325Z,14.30
2023-02-16T03:46:59.106Z,12.23
2023-02-16T03:49:30.879Z,16.13
2023-02-16T03:52:02.593Z,22.23
2023-02-16T03:54:34.318Z,18.43
2023-02-16T03:57:06.200Z,18.07
2023-02-16T03:59:37.914Z,17.37
2023-02-16T04:02:09.692Z,14.40
2023-02-16T04:04:41.398Z,16.03
2023-02-16T04:07:13.348Z,13.70
2023-02-16T04:09:45.085Z,18.80
2023-02-16T04:12:35.601Z,16.70
2023-02-16T04:15:10.883Z,18.57
2023-02-16T04:17:43.102Z,13.20
2023-02-16T04:20:18.061Z,14.27
2023-02-16T04:22:50.578Z,15.53
2023-02-16T04:25:22.713Z,13.40
2023-02-16T04:27:54.735Z,15.47
2023-02-16T04:30:29.764Z,17.23
2023-02-16T04:33:01.558Z,10.90
2023-02-16T04:35:33.270Z,15.57
2023-02-16T04:38:04.986Z,21.83
2023-02-16T04:40:36.701Z,22.37
2023-02-16T04:43:08.458Z,26.27
2023-02-16T04:45:40.168Z,12.73
2023-02-16T04:48:11.864Z,12.10
2023-02-16T04:50:43.606Z,22.03
2023-02-16T04:53:15.328Z,11.00
2023-02-16T04:55:48.172Z,13.53
2023-02-16T04:58:19.863Z,23.77
2023-02-16T05:00:51.598Z,13.63
2023-02-16T05:03:23.332Z,16.57
2023-02-16T05:05:55.315Z,12.87
2023-02-16T05:08:27.234Z,10.70
2023-02-16T05:11:17.380Z,8.90
2023-02-16T05:14:07.790Z,15.57
2023-02-16T05:16:39.509Z,14.70
2023-02-16T05:19:11.988Z,10.50
2023-02-16T05:21:43.714Z,13.67
2023-02-16T05:24:15.420Z,13.77
2023-02-16T05:26:47.161Z,12.33
2023-02-16T05:29:18.882Z,22.77
2023-02-16T05:31:50.758Z,14.93
2023-02-16T05:34:22.612Z,16.33
2023-02-16T05:36:55.178Z,12.80
2023-02-16T05:39:26.920Z,19.57
2023-02-16T05:41:58.754Z,25.43
2023-02-16T05:44:30.644Z,17.70
2023-02-16T05:47:02.384Z,13.00
2023-02-16T05:49:34.290Z,16.90
2023-02-16T05:52:06.127Z,15.33
2023-02-16T05:54:37.877Z,12.07
2023-02-16T05:57:10.096Z,16.67
2023-02-16T05:59:41.793Z,19.53
2023-02-16T06:02:13.574Z,15.90
2023-02-16T06:04:45.361Z,11.17
2023-02-16T06:07:17.119Z,18.70
2023-02-16T06:09:48.842Z,9.63
2023-02-16T06:12:20.599Z,16.67
2023-02-16T06:14:52.386Z,18.97
2023-02-16T06:17:24.270Z,15.43
2023-02-16T06:19:55.971Z,10.83
2023-02-16T06:22:27.683Z,13.03
2023-02-16T06:24:59.394Z,10.20
2023-02-16T06:27:31.351Z,10.47
2023-02-16T06:30:04.104Z,20.90
2023-02-16T06:32:36.097Z,15.30
2023-02-16T06:35:08.131Z,12.07
2023-02-16T06:37:39.879Z,11.30
2023-02-16T06:40:15.963Z,12.77
2023-02-16T06:42:47.719Z,15.30
2023-02-16T06:45:19.751Z,26.90
2023-02-16T06:47:51.486Z,20.03
2023-02-16T06:50:23.266Z,15.23
2023-02-16T06:52:55.074Z,16.40
2023-02-16T06:55:26.783Z,14.27
2023-02-16T06:57:58.510Z,8.90
2023-02-16T07:00:30.588Z,14.33
2023-02-16T07:03:02.585Z,15.73
2023-02-16T07:05:34.441Z,28.83
2023-02-16T07:08:06.239Z,11.63
2023-02-16T07:10:49.503Z,14.13
2023-02-16T07:13:22.141Z,13.93
2023-02-16T07:15:53.905Z,13.87
2023-02-16T07:18:25.634Z,17.87
2023-02-16T07:20:57.367Z,17.90
2023-02-16T07:23:29.111Z,19.33
2023-02-16T07:26:00.911Z,15.10
2023-02-16T07:28:32.652Z,14.03
2023-02-16T07:31:12.714Z,13.93
2023-02-16T07:33:45.177Z,14.60
2023-02-16T07:36:16.880Z,27.63
2023-02-16T07:38:48.652Z,20.50
2023-02-16T07:41:20.670Z,14.10
2023-02-16T07:43:52.381Z,17.70
2023-02-16T07:46:24.209Z,12.50
2023-02-16T07:48:55.929Z,13.80
2023-02-16T07:51:30.724Z,17.27
2023-02-16T07:54:02.615Z,13.87
2023-02-16T07:56:35.611Z,12.97
2023-02-16T07:59:07.468Z,17.17
2023-02-16T08:01:39.993Z,17.30
2023-02-16T08:04:11.835Z,19.60
2023-02-16T08:06:44.071Z,12.70
2023-02-16T08:09:15.894Z,12.13
2023-02-16T08:11:47.615Z,13.90
2023-02-16T08:14:19.361Z,11.83
2023-02-16T08:16:54.167Z,21.97
2023-02-16T08:19:29.146Z,16.30
2023-02-16T08:22:02.493Z,13.80
2023-02-16T08:24:35.165Z,17.37
2023-02-16T08:27:07.353Z,13.17
2023-02-16T08:29:39.210Z,12.80
2023-02-16T08:32:13.104Z,20.03
2023-02-16T08:34:44.971Z,16.73
2023-02-16T08:37:16.693Z,19.30
2023-02-16T08:39:49.181Z,19.67
2023-02-16T08:42:21.279Z,15.13
2023-02-16T08:44:53.209Z,10.93
2023-02-16T08:47:24.955Z,14.20
2023-02-16T08:49:56.781Z,19.97
2023-02-16T08:52:28.962Z,15.27
2023-02-16T08:55:00.726Z,14.43
2023-02-16T08:57:35.766Z,15.03
2023-02-16T09:00:26.847Z,14.33
2023-02-16T09:02:59.876Z,20.00
2023-02-16T09:05:31.591Z,16.20
2023-02-16T09:08:03.420Z,15.93
2023-02-16T09:10:35.209Z,20.40
2023-02-16T09:13:10.585Z,24.60
2023-02-16T09:15:45.663Z,22.23
2023-02-16T09:18:17.421Z,15.37
2023-02-16T09:20:49.146Z,19.77
2023-02-16T09:23:21.990Z,22.07
2023-02-16T09:25:53.865Z,23.17
2023-02-16T09:28:25.572Z,17.27
2023-02-16T09:30:57.388Z,31.77
2023-02-16T09:33:29.180Z,23.93
2023-02-16T09:36:05.521Z,15.87
2023-02-16T09:38:41.565Z,16.30
2023-02-16T09:41:51.860Z,14.77
2023-02-16T09:44:49.219Z,15.67
2023-02-16T09:47:33.679Z,16.87
2023-02-16T09:50:17.099Z,14.20
2023-02-16T09:53:03.605Z,15.47
2023-02-16T09:56:13.957Z,19.37
2023-02-16T09:59:12.632Z,27.53
2023-02-16T10:01:50.495Z,28.50
2023-02-16T10:04:31.893Z,14.80
2023-02-16T10:07:24.625Z,15.80
2023-02-16T10:09:58.829Z,15.23
2023-02-16T10:12:41.268Z,19.83
2023-02-16T10:15:26.539Z,13.70
2023-02-16T10:18:02.950Z,14.73
2023-02-16T10:20:40.678Z,17.67
2023-02-16T10:23:44.992Z,15.27
2023-02-16T10:26:40.594Z,22.57
2023-02-16T10:29:19.324Z,24.77
2023-02-16T10:32:00.039Z,20.57
2023-02-16T10:34:45.355Z,16.33
2023-02-16T10:37:39.255Z,16.77
2023-02-16T10:40:23.210Z,11.60
2023-02-16T10:43:03.948Z,13.07
2023-02-16T10:45:52.731Z,19.20
2023-02-16T10:48:26.195Z,16.60
2023-02-16T10:51:09.171Z,13.50
2023-02-16T10:53:49.961Z,20.40
2023-02-16T10:56:33.519Z,17.43
2023-02-16T10:59:12.860Z,14.87
2023-02-16T11:02:06.625Z,30.30
2023-02-16T11:04:43.297Z,21.40
2023-02-16T11:07:22.093Z,17.07
2023-02-16T11:09:56.250Z,18.57
2023-02-16T11:12:35.106Z,15.27
2023-02-16T11:15:17.550Z,24.53
2023-02-16T11:18:04.773Z,17.57
2023-02-16T11:20:44.968Z,17.00
2023-02-16T11:23:26.885Z,19.57
2023-02-16T11:26:11.727Z,26.90
2023-02-16T11:28:44.965Z,17.20
2023-02-16T11:31:18.791Z,18.27
2023-02-16T11:34:01.233Z,22.50
2023-02-16T11:36:39.911Z,23.87
2023-02-16T11:39:20.474Z,14.70
2023-02-16T11:41:54.079Z,23.40
2023-02-16T11:44:28.614Z,20.67
2023-02-16T11:47:07.925Z,22.73
2023-02-16T11:49:41.761Z,22.77
2023-02-16T11:52:29.211Z,19.23
2023-02-16T11:55:02.263Z,20.70
2023-02-16T11:57:36.764Z,23.10
2023-02-16T12:00:35.047Z,21.23
2023-02-16T12:03:33.652Z,24.40
2023-02-16T12:06:33.599Z,20.80
2023-02-16T12:22:26.294Z,36.13
2023-02-16T12:25:25.481Z,26.57
2023-02-16T12:28:16.401Z,27.40
2023-02-16T12:31:26.763Z,21.33
2023-02-16T12:34:36.729Z,27.57
2023-02-16T12:37:26.781Z,44.87
2023-02-16T12:40:22.187Z,34.07
2023-02-16T12:43:32.245Z,30.03
2023-02-16T12:46:28.118Z,28.53
2023-02-16T12:49:13.934Z,34.10
2023-02-16T12:51:53.060Z,34.67
2023-02-16T12:54:33.094Z,26.00
2023-02-16T12:57:13.779Z,36.10
2023-02-16T12:59:55.383Z,36.53
2023-02-16T13:02:40.544Z,27.00
2023-02-16T13:05:25.973Z,37.40
2023-02-16T13:08:07.976Z,37.03
2023-02-16T13:11:07.443Z,28.63
2023-02-16T13:13:41.316Z,32.17
2023-02-16T13:16:30.504Z,42.80
2023-02-16T13:19:02.835Z,38.10
2023-02-16T13:21:52.881Z,39.47
2023-02-16T13:24:52.156Z,33.57
2023-02-16T13:27:57.894Z,28.53
2023-02-16T13:30:33.966Z,36.83
2023-02-16T13:33:18.728Z,32.90
2023-02-16T13:36:09.968Z,30.17
2023-02-16T13:38:59.706Z,32.73
2023-02-16T13:41:40.256Z,39.50
2023-02-16T13:44:18.904Z,40.87
2023-02-16T13:46:53.855Z,38.17
2023-02-16T13:49:42.255Z,39.07
2023-02-16T13:52:39.507Z,37.80
2023-02-16T13:55:24.974Z,33.03
2023-02-16T13:58:04.459Z,48.90
2023-02-16T14:00:42.634Z,87.97
2023-02-16T14:03:21.084Z,92.20
2023-02-16T14:05:55.877Z,63.70
2023-02-16T14:08:29.546Z,57.53
2023-02-16T14:11:04.021Z,26.73
2023-02-16T14:13:38.502Z,36.43
2023-02-16T14:16:13.246Z,31.13
2023-02-16T14:18:58.475Z,36.87
2023-02-16T14:21:35.983Z,48.00
2023-02-16T14:24:13.456Z,40.87
2023-02-16T14:27:13.003Z,40.50
2023-02-16T14:30:00.526Z,30.90
2023-02-16T14:32:38.537Z,28.10
2023-02-16T14:35:22.892Z,32.43
2023-02-16T14:38:03.470Z,33.97
2023-02-16T14:40:35.259Z,31.83
2023-02-16T14:43:22.918Z,36.23
2023-02-16T14:46:13.717Z,30.33
2023-02-16T14:49:16.316Z,33.27
2023-02-16T14:52:12.936Z,30.23
2023-02-16T14:55:07.661Z,36.90
2023-02-16T14:57:50.189Z,32.67
2023-02-16T15:00:31.139Z,25.63
2023-02-16T15:03:26.992Z,32.63
2023-02-16T15:06:06.271Z,27.50
2023-02-16T15:08:40.172Z,28.13
2023-02-16T15:11:16.918Z,34.03
2023-02-16T15:13:53.400Z,28.67
2023-02-16T15:16:25.143Z,27.23
2023-02-16T15:18:57.476Z,33.97
2023-02-16T15:21:30.595Z,30.87
2023-02-16T15:24:02.367Z,28.50
2023-02-16T15:26:35.822Z,30.07
2023-02-16T15:29:33.919Z,32.93
2023-02-16T15:32:07.047Z,19.90
2023-02-16T15:34:41.078Z,26.63
2023-02-16T15:37:29.630Z,23.97
2023-02-16T15:40:25.396Z,22.20
2023-02-16T15:43:07.819Z,25.47
2023-02-16T15:45:39.587Z,28.73
2023-02-16T15:48:26.447Z,27.13
2023-02-16T15:51:06.888Z,21.63
2023-02-16T15:53:46.773Z,23.33
2023-02-16T15:56:47.261Z,23.97
2023-02-16T15:59:22.263Z,25.33
2023-02-16T16:02:12.119Z,26.10
2023-02-16T16:04:50.081Z,20.83
2023-02-16T16:07:26.609Z,22.90
2023-02-16T16:09:59.611Z,20.90
2023-02-16T16:12:31.513Z,23.37
2023-02-16T16:15:04.444Z,26.47
2023-02-16T16:17:39.595Z,21.47
2023-02-16T16:20:30.967Z,20.57
2023-02-16T16:23:24.378Z,20.80
2023-02-16T16:25:56.652Z,23.33
2023-02-16T16:28:28.365Z,22.07
2023-02-16T16:31:11.739Z,20.33
2023-02-16T16:33:59.556Z,24.67
2023-02-16T16:36:45.618Z,21.63
2023-02-16T16:39:17.329Z,18.17
2023-02-16T16:42:18.149Z,20.17
2023-02-16T16:44:56.944Z,25.93
2023-02-16T16:47:40.258Z,20.00
2023-02-16T16:50:14.386Z,19.80
2023-02-16T16:52:48.938Z,21.93
2023-02-16T16:55:24.974Z,21.57
2023-02-16T16:58:04.250Z,20.37
2023-02-16T17:00:38.975Z,25.47
2023-02-16T17:03:15.458Z,24.00
2023-02-16T17:05:47.424Z,28.83
2023-02-16T17:08:19.247Z,19.07
2023-02-16T17:10:51.027Z,24.80
2023-02-16T17:13:22.730Z,21.53
2023-02-16T17:16:01.071Z,26.37
2023-02-16T17:18:33.000Z,25.73
2023-02-16T17:21:05.281Z,17.77
2023-02-16T17:23:45.209Z,20.30
2023-02-16T17:26:22.818Z,19.07
2023-02-16T17:28:54.498Z,27.70
2023-02-16T17:31:26.338Z,28.70
2023-02-16T17:33:58.140Z,21.10
2023-02-16T17:36:30.133Z,17.83
2023-02-16T17:39:01.957Z,15.40
2023-02-16T17:41:33.693Z,27.20
2023-02-16T17:44:05.448Z,18.40
2023-02-16T17:46:37.171Z,20.70
2023-02-16T17:49:11.189Z,20.93
2023-02-16T17:51:42.887Z,30.13
2023-02-16T17:54:14.576Z,19.43
2023-02-16T17:56:47.077Z,23.47
2023-02-16T17:59:18.777Z,20.27
2023-02-16T18:01:50.473Z,23.27
2023-02-16T18:04:22.410Z,30.93
2023-02-16T18:06:54.163Z,29.37
2023-02-16T18:09:25.841Z,21.97
2023-02-16T18:11:57.582Z,22.70
2023-02-16T18:14:29.312Z,27.70
2023-02-16T18:17:01.472Z,25.20
2023-02-16T18:19:34.258Z,16.07
2023-02-16T18:22:05.978Z,17.37
2023-02-16T18:24:37.687Z,25.03
2023-02-16T18:27:10.336Z,19.53
2023-02-16T18:29:42.061Z,22.23
2023-02-16T18:32:13.776Z,24.57
2023-02-16T18:34:45.596Z,19.80
2023-02-16T18:37:17.384Z,20.67
2023-02-16T18:39:49.118Z,25.13
2023-02-16T18:42:20.911Z,26.57
2023-02-16T18:44:52.681Z,23.70
2023-02-16T18:47:24.526Z,16.60
2023-02-16T18:49:56.337Z,24.20
2023-02-16T18:52:28.077Z,19.50
2023-02-16T18:54:59.781Z,18.03
2023-02-16T18:57:31.536Z,16.43
2023-02-16T19:00:06.702Z,17.43
2023-02-16T19:02:40.736Z,24.17
2023-02-16T19:05:12.500Z,22.67
2023-02-16T19:07:44.211Z,19.07
2023-02-16T19:10:16.891Z,22.17
2023-02-16T19:12:48.619Z,34.67
2023-02-16T19:15:20.401Z,19.57
2023-02-16T19:17:52.285Z,26.00
2023-02-16T19:20:24.227Z,19.90
2023-02-16T19:22:56.358Z,19.70
2023-02-16T19:25:29.272Z,25.47
2023-02-16T19:28:01.017Z,24.60
2023-02-16T19:30:32.960Z,24.77
2023-02-16T19:33:04.752Z,20.47
2023-02-16T19:35:36.517Z,21.73
2023-02-16T19:38:08.287Z,23.37
2023-02-16T19:40:40.041Z,20.17
2023-02-16T19:43:11.774Z,23.23
2023-02-16T19:45:43.472Z,13.43
2023-02-16T19:48:15.222Z,15.40
2023-02-16T19:50:46.967Z,17.67
2023-02-16T19:53:18.665Z,27.97
2023-02-16T19:55:52.295Z,16.50
2023-02-16T19:58:25.301Z,23.20
2023-02-16T20:00:57.099Z,21.27
2023-02-16T20:03:28.851Z,15.87
2023-02-16T20:06:00.681Z,18.07
2023-02-16T20:08:32.419Z,19.20
2023-02-16T20:11:04.923Z,16.73
2023-02-16T20:13:36.910Z,23.73
2023-02-16T20:16:09.897Z,19.03
2023-02-16T20:18:42.295Z,19.57
2023-02-16T20:21:17.416Z,23.57
2023-02-16T20:23:55.486Z,17.37
2023-02-16T20:26:34.741Z,27.57
2023-02-16T20:29:08.531Z,18.43
2023-02-16T20:31:51.308Z,17.63
2023-02-16T20:34:25.951Z,25.83
2023-02-16T20:36:58.346Z,20.43
2023-02-16T20:39:30.129Z,14.93
2023-02-16T20:42:01.870Z,16.93
2023-02-16T20:44:33.619Z,15.13
2023-02-16T20:47:07.980Z,16.93
2023-02-16T20:49:39.755Z,10.37
2023-02-16T20:52:11.575Z,15.93
2023-02-16T20:54:43.330Z,16.90
2023-02-16T20:57:26.015Z,14.90
2023-02-16T20:59:58.701Z,10.80
2023-02-16T21:02:30.452Z,11.27
2023-02-16T21:05:02.157Z,16.13
2023-02-16T21:07:33.989Z,17.10
2023-02-16T21:10:08.002Z,11.97
2023-02-16T21:12:39.761Z,15.33
2023-02-16T21:15:12.492Z,16.03
2023-02-16T21:17:44.483Z,18.37
2023-02-16T21:20:16.499Z,12.43
2023-02-16T21:22:48.321Z,14.63
2023-02-16T21:25:20.047Z,12.50
2023-02-16T21:27:51.752Z,14.73
2023-02-16T21:30:23.853Z,15.63
2023-02-16T21:32:55.887Z,16.70
2023-02-16T21:35:28.027Z,12.23
2023-02-16T21:37:59.914Z,13.77
2023-02-16T21:40:50.105Z,11.40
2023-02-16T21:43:21.933Z,11.93
2023-02-16T21:46:01.120Z,13.30
2023-02-16T21:48:48.390Z,11.07
2023-02-16T21:51:24.315Z,13.67
2023-02-16T21:53:57.084Z,13.93
2023-02-16T21:56:39.355Z,13.90
2023-02-16T21:59:13.987Z,15.80
2023-02-16T22:01:48.635Z,15.47
2023-02-16T22:04:22.624Z,11.20
2023-02-16T22:06:55.988Z,18.93
2023-02-16T22:09:27.731Z,15.53
2023-02-16T22:11:59.435Z,16.03
2023-02-16T22:14:33.186Z,17.13
2023-02-16T22:17:06.566Z,10.37
2023-02-16T22:19:38.286Z,13.33
2023-02-16T22:22:10.528Z,13.83
2023-02-16T22:24:42.367Z,17.87
2023-02-16T22:27:14.094Z,13.03
2023-02-16T22:29:45.830Z,11.80
2023-02-16T22:32:17.675Z,15.27
2023-02-16T22:34:49.496Z,15.17
2023-02-16T22:37:21.346Z,14.40
2023-02-16T22:39:55.117Z,11.03
2023-02-16T22:42:27.064Z,12.53
2023-02-16T22:44:58.925Z,14.33
2023-02-16T22:47:31.327Z,10.17
2023-02-16T22:50:03.082Z,12.07
2023-02-16T22:52:36.353Z,13.90
2023-02-16T22:55:08.606Z,14.30
2023-02-16T22:57:40.402Z,11.43
2023-02-16T23:00:15.268Z,14.13
2023-02-16T23:02:47.232Z,11.17
2023-02-16T23:05:20.185Z,11.17
2023-02-16T23:07:51.881Z,10.33
2023-02-16T23:10:23.593Z,17.17
2023-02-16T23:12:55.410Z,15.37
2023-02-16T23:15:27.132Z,13.20
2023-02-16T23:17:58.961Z,15.30
2023-02-16T23:20:30.985Z,11.47
2023-02-16T23:23:02.700Z,19.53
2023-02-16T23:25:34.466Z,20.50
2023-02-16T23:28:06.271Z,15.27
2023-02-16T23:30:42.586Z,15.70
2023-02-16T23:33:14.660Z,16.13
2023-02-16T23:35:46.358Z,11.63
2023-02-16T23:38:18.689Z,13.30
2023-02-16T23:41:01.636Z,12.33
2023-02-16T23:43:33.769Z,15.87
2023-02-16T23:46:06.291Z,11.17
2023-02-16T23:48:38.527Z,27.70
2023-02-16T23:51:12.060Z,14.57
2023-02-16T23:53:44.135Z,12.97
2023-02-16T23:56:19.059Z,18.73
2023-02-16T23:58:51.528Z,18.67
